Cacuaco, Angola
Current Conditions -  °F | °C
As of 1:00 PM on Wednesday 28 Jan 2015 (Local Time) from FNLU Reporting Station
Broken Clouds Broken Clouds  
Wind Chill: 82°   Ceiling: 10000
Heat Index: 88°   Visibility: 6mi
Dew Point: 73°   Wind: 9mph
Humidity: 74%   Direction: 260°W
Pressure: 29.85"   Gusts: NA
Location:  8.78°S, 13.37°E
Report Text: FNLU 281200Z 26008KT 9999 FEW023 BKN100 28/23 Q1011 NOSIG
Loading
Personal Weather Stations






























Interactive Weather Map New forecast layout! Learn more

10-Day Weather Forecast

Advertisements
Track Severe Weather on mobile